sensor_id;sensor_type;location;lat;lon;timestamp;temperature;humidity
47114;DHT22;32867;51.556;6.832;2023-05-20T00:00:38;14.40;73.60
47114;DHT22;32867;51.556;6.832;2023-05-20T00:05:39;14.30;74.20
47114;DHT22;32867;51.556;6.832;2023-05-20T00:10:40;14.30;74.70
47114;DHT22;32867;51.556;6.832;2023-05-20T00:15:42;14.20;75.10
47114;DHT22;32867;51.556;6.832;2023-05-20T00:20:43;14.20;75.70
47114;DHT22;32867;51.556;6.832;2023-05-20T00:25:44;14.10;75.70
47114;DHT22;32867;51.556;6.832;2023-05-20T00:30:46;14.00;77.60
47114;DHT22;32867;51.556;6.832;2023-05-20T00:35:46;14.00;77.80
47114;DHT22;32867;51.556;6.832;2023-05-20T00:40:47;13.90;78.40
47114;DHT22;32867;51.556;6.832;2023-05-20T00:45:48;13.90;79.00
47114;DHT22;32867;51.556;6.832;2023-05-20T00:50:49;13.80;80.00
47114;DHT22;32867;51.556;6.832;2023-05-20T00:55:50;13.80;80.50
47114;DHT22;32867;51.556;6.832;2023-05-20T01:00:51;13.80;81.40
47114;DHT22;32867;51.556;6.832;2023-05-20T01:05:52;13.80;82.70
47114;DHT22;32867;51.556;6.832;2023-05-20T01:11:19;13.70;82.60
47114;DHT22;32867;51.556;6.832;2023-05-20T01:16:23;13.70;84.80
47114;DHT22;32867;51.556;6.832;2023-05-20T01:21:26;13.70;84.60
47114;DHT22;32867;51.556;6.832;2023-05-20T01:26:27;13.60;85.60
47114;DHT22;32867;51.556;6.832;2023-05-20T01:31:32;13.60;87.20
47114;DHT22;32867;51.556;6.832;2023-05-20T01:36:36;13.60;88.40
47114;DHT22;32867;51.556;6.832;2023-05-20T01:41:40;13.50;89.40
47114;DHT22;32867;51.556;6.832;2023-05-20T01:46:41;13.50;90.20
47114;DHT22;32867;51.556;6.832;2023-05-20T01:51:42;13.40;90.90
47114;DHT22;32867;51.556;6.832;2023-05-20T01:56:45;13.40;91.70
47114;DHT22;32867;51.556;6.832;2023-05-20T02:01:46;13.40;92.10
47114;DHT22;32867;51.556;6.832;2023-05-20T02:06:49;13.40;92.70
47114;DHT22;32867;51.556;6.832;2023-05-20T02:11:51;13.30;93.50
47114;DHT22;32867;51.556;6.832;2023-05-20T02:16:52;13.20;94.60
47114;DHT22;32867;51.556;6.832;2023-05-20T02:21:53;13.20;95.20
47114;DHT22;32867;51.556;6.832;2023-05-20T02:26:54;13.10;96.00
47114;DHT22;32867;51.556;6.832;2023-05-20T02:31:57;13.10;96.80
47114;DHT22;32867;51.556;6.832;2023-05-20T02:36:58;13.00;97.30
47114;DHT22;32867;51.556;6.832;2023-05-20T02:42:00;13.00;97.90
47114;DHT22;32867;51.556;6.832;2023-05-20T02:47:03;12.90;98.50
47114;DHT22;32867;51.556;6.832;2023-05-20T02:52:04;13.00;98.70
47114;DHT22;32867;51.556;6.832;2023-05-20T02:57:06;13.00;99.20
47114;DHT22;32867;51.556;6.832;2023-05-20T03:02:07;13.00;99.50
47114;DHT22;32867;51.556;6.832;2023-05-20T03:07:07;12.90;99.90
47114;DHT22;32867;51.556;6.832;2023-05-20T03:12:10;12.70;99.90
47114;DHT22;32867;51.556;6.832;2023-05-20T03:17:12;12.70;99.90
47114;DHT22;32867;51.556;6.832;2023-05-20T03:22:14;12.70;99.90
47114;DHT22;32867;51.556;6.832;2023-05-20T03:27:15;12.80;99.90
47114;DHT22;32867;51.556;6.832;2023-05-20T03:32:16;12.70;99.90
47114;DHT22;32867;51.556;6.832;2023-05-20T03:37:17;12.70;99.90
47114;DHT22;32867;51.556;6.832;2023-05-20T03:42:18;12.70;99.90
47114;DHT22;32867;51.556;6.832;2023-05-20T03:47:19;12.70;99.90
47114;DHT22;32867;51.556;6.832;2023-05-20T03:52:20;12.60;99.90
47114;DHT22;32867;51.556;6.832;2023-05-20T03:57:21;12.60;99.90
47114;DHT22;32867;51.556;6.832;2023-05-20T04:02:24;12.60;99.90
47114;DHT22;32867;51.556;6.832;2023-05-20T04:07:26;12.70;99.90
47114;DHT22;32867;51.556;6.832;2023-05-20T04:12:27;12.70;99.90
47114;DHT22;32867;51.556;6.832;2023-05-20T04:17:30;12.80;99.90
47114;DHT22;32867;51.556;6.832;2023-05-20T04:22:32;12.80;99.90
47114;DHT22;32867;51.556;6.832;2023-05-20T04:27:33;12.80;99.90
47114;DHT22;32867;51.556;6.832;2023-05-20T04:32:35;12.90;99.90
47114;DHT22;32867;51.556;6.832;2023-05-20T04:37:36;12.80;99.90
47114;DHT22;32867;51.556;6.832;2023-05-20T04:42:40;12.80;99.90
47114;DHT22;32867;51.556;6.832;2023-05-20T04:47:40;12.90;99.90
47114;DHT22;32867;51.556;6.832;2023-05-20T04:52:42;13.00;99.90
47114;DHT22;32867;51.556;6.832;2023-05-20T04:57:43;13.20;99.90
47114;DHT22;32867;51.556;6.832;2023-05-20T05:02:43;13.10;99.90
47114;DHT22;32867;51.556;6.832;2023-05-20T05:07:45;13.20;99.90
47114;DHT22;32867;51.556;6.832;2023-05-20T05:12:46;13.30;99.90
47114;DHT22;32867;51.556;6.832;2023-05-20T05:17:48;13.40;99.90
47114;DHT22;32867;51.556;6.832;2023-05-20T05:22:49;13.50;99.90
47114;DHT22;32867;51.556;6.832;2023-05-20T05:27:50;13.70;99.90
47114;DHT22;32867;51.556;6.832;2023-05-20T05:32:51;13.70;99.90
47114;DHT22;32867;51.556;6.832;2023-05-20T05:37:52;14.00;99.90
47114;DHT22;32867;51.556;6.832;2023-05-20T05:42:53;14.00;99.90
47114;DHT22;32867;51.556;6.832;2023-05-20T05:47:55;14.20;99.90
47114;DHT22;32867;51.556;6.832;2023-05-20T05:52:57;14.40;99.90
47114;DHT22;32867;51.556;6.832;2023-05-20T05:57:58;14.70;99.90
47114;DHT22;32867;51.556;6.832;2023-05-20T06:03:02;14.80;99.90
47114;DHT22;32867;51.556;6.832;2023-05-20T06:08:09;14.90;99.90
47114;DHT22;32867;51.556;6.832;2023-05-20T06:13:12;15.00;99.90
47114;DHT22;32867;51.556;6.832;2023-05-20T06:18:12;15.20;99.90
47114;DHT22;32867;51.556;6.832;2023-05-20T06:23:13;15.40;99.90
47114;DHT22;32867;51.556;6.832;2023-05-20T06:28:29;15.70;99.90
47114;DHT22;32867;51.556;6.832;2023-05-20T06:33:31;15.80;99.90
47114;DHT22;32867;51.556;6.832;2023-05-20T06:38:36;16.00;99.60
47114;DHT22;32867;51.556;6.832;2023-05-20T06:43:38;16.00;99.80
47114;DHT22;32867;51.556;6.832;2023-05-20T06:49:05;16.20;98.90
47114;DHT22;32867;51.556;6.832;2023-05-20T06:54:06;16.40;98.50
47114;DHT22;32867;51.556;6.832;2023-05-20T06:59:07;16.50;97.50
47114;DHT22;32867;51.556;6.832;2023-05-20T07:04:11;16.90;97.50
47114;DHT22;32867;51.556;6.832;2023-05-20T07:09:11;17.30;96.60
47114;DHT22;32867;51.556;6.832;2023-05-20T07:14:13;17.30;95.70
47114;DHT22;32867;51.556;6.832;2023-05-20T07:19:14;17.30;94.00
47114;DHT22;32867;51.556;6.832;2023-05-20T07:24:16;17.70;94.00
47114;DHT22;32867;51.556;6.832;2023-05-20T07:29:17;17.50;93.40
47114;DHT22;32867;51.556;6.832;2023-05-20T07:34:18;17.30;93.30
47114;DHT22;32867;51.556;6.832;2023-05-20T07:39:20;17.10;93.30
47114;DHT22;32867;51.556;6.832;2023-05-20T07:44:20;17.00;92.90
47114;DHT22;32867;51.556;6.832;2023-05-20T07:49:24;16.90;93.80
47114;DHT22;32867;51.556;6.832;2023-05-20T07:54:26;17.20;93.50
47114;DHT22;32867;51.556;6.832;2023-05-20T07:59:27;17.50;93.70
47114;DHT22;32867;51.556;6.832;2023-05-20T08:04:28;17.80;93.20
47114;DHT22;32867;51.556;6.832;2023-05-20T08:09:30;18.10;92.30
47114;DHT22;32867;51.556;6.832;2023-05-20T08:14:32;17.80;92.10
47114;DHT22;32867;51.556;6.832;2023-05-20T08:19:33;17.90;92.10
47114;DHT22;32867;51.556;6.832;2023-05-20T08:24:34;17.80;92.90
47114;DHT22;32867;51.556;6.832;2023-05-20T08:29:35;18.10;92.50
47114;DHT22;32867;51.556;6.832;2023-05-20T08:34:37;18.40;91.80
47114;DHT22;32867;51.556;6.832;2023-05-20T08:39:38;18.40;91.30
47114;DHT22;32867;51.556;6.832;2023-05-20T08:44:41;18.30;91.80
47114;DHT22;32867;51.556;6.832;2023-05-20T08:49:42;18.70;91.20
47114;DHT22;32867;51.556;6.832;2023-05-20T08:54:45;18.70;91.00
47114;DHT22;32867;51.556;6.832;2023-05-20T08:59:45;18.90;89.90
47114;DHT22;32867;51.556;6.832;2023-05-20T09:04:46;18.70;90.10
47114;DHT22;32867;51.556;6.832;2023-05-20T09:09:47;19.10;89.80
47114;DHT22;32867;51.556;6.832;2023-05-20T09:14:48;19.10;87.60
47114;DHT22;32867;51.556;6.832;2023-05-20T09:19:49;18.70;89.30
47114;DHT22;32867;51.556;6.832;2023-05-20T09:24:53;18.60;90.40
47114;DHT22;32867;51.556;6.832;2023-05-20T09:29:54;19.10;90.00
47114;DHT22;32867;51.556;6.832;2023-05-20T09:34:55;19.40;88.60
47114;DHT22;32867;51.556;6.832;2023-05-20T09:40:03;19.50;86.80
47114;DHT22;32867;51.556;6.832;2023-05-20T09:45:06;19.40;87.60
47114;DHT22;32867;51.556;6.832;2023-05-20T09:50:09;19.50;87.80
47114;DHT22;32867;51.556;6.832;2023-05-20T09:55:09;19.40;87.20
47114;DHT22;32867;51.556;6.832;2023-05-20T10:00:11;19.20;85.50
47114;DHT22;32867;51.556;6.832;2023-05-20T10:05:19;19.00;88.00
47114;DHT22;32867;51.556;6.832;2023-05-20T10:10:45;19.00;87.50
47114;DHT22;32867;51.556;6.832;2023-05-20T10:21:42;19.20;87.50
47114;DHT22;32867;51.556;6.832;2023-05-20T10:26:43;19.20;87.00
47114;DHT22;32867;51.556;6.832;2023-05-20T10:31:54;19.20;88.10
47114;DHT22;32867;51.556;6.832;2023-05-20T10:36:59;19.40;87.60
47114;DHT22;32867;51.556;6.832;2023-05-20T10:42:10;19.40;87.60
47114;DHT22;32867;51.556;6.832;2023-05-20T10:47:11;19.60;87.70
47114;DHT22;32867;51.556;6.832;2023-05-20T10:52:18;19.70;87.30
47114;DHT22;32867;51.556;6.832;2023-05-20T10:57:20;19.80;86.70
47114;DHT22;32867;51.556;6.832;2023-05-20T11:02:21;19.50;86.40
47114;DHT22;32867;51.556;6.832;2023-05-20T11:07:29;19.80;87.80
47114;DHT22;32867;51.556;6.832;2023-05-20T11:12:31;20.40;86.50
47114;DHT22;32867;51.556;6.832;2023-05-20T11:17:32;20.70;85.00
47114;DHT22;32867;51.556;6.832;2023-05-20T11:22:33;20.40;83.80
47114;DHT22;32867;51.556;6.832;2023-05-20T11:27:38;20.20;84.50
47114;DHT22;32867;51.556;6.832;2023-05-20T11:32:39;20.20;84.60
47114;DHT22;32867;51.556;6.832;2023-05-20T11:37:40;20.30;85.10
47114;DHT22;32867;51.556;6.832;2023-05-20T11:42:44;20.40;84.60
47114;DHT22;32867;51.556;6.832;2023-05-20T11:47:58;20.70;84.60
47114;DHT22;32867;51.556;6.832;2023-05-20T11:53:01;20.90;85.00
47114;DHT22;32867;51.556;6.832;2023-05-20T11:58:02;21.00;84.30
47114;DHT22;32867;51.556;6.832;2023-05-20T12:03:03;21.10;83.10
47114;DHT22;32867;51.556;6.832;2023-05-20T12:08:04;21.20;83.70
47114;DHT22;32867;51.556;6.832;2023-05-20T12:13:08;21.50;82.10
47114;DHT22;32867;51.556;6.832;2023-05-20T12:18:12;22.20;81.80
47114;DHT22;32867;51.556;6.832;2023-05-20T12:23:13;22.50;78.50
47114;DHT22;32867;51.556;6.832;2023-05-20T12:28:14;22.40;78.20
47114;DHT22;32867;51.556;6.832;2023-05-20T12:33:15;22.60;77.40
47114;DHT22;32867;51.556;6.832;2023-05-20T12:38:16;23.00;77.20
47114;DHT22;32867;51.556;6.832;2023-05-20T12:43:17;23.40;75.50
47114;DHT22;32867;51.556;6.832;2023-05-20T12:48:17;23.10;74.00
47114;DHT22;32867;51.556;6.832;2023-05-20T12:53:18;22.80;75.20
47114;DHT22;32867;51.556;6.832;2023-05-20T12:58:19;23.10;73.50
47114;DHT22;32867;51.556;6.832;2023-05-20T13:03:20;23.50;73.10
47114;DHT22;32867;51.556;6.832;2023-05-20T13:08:20;23.80;72.40
47114;DHT22;32867;51.556;6.832;2023-05-20T13:13:21;23.60;72.60
47114;DHT22;32867;51.556;6.832;2023-05-20T13:18:23;23.80;72.50
47114;DHT22;32867;51.556;6.832;2023-05-20T13:23:24;23.70;72.20
47114;DHT22;32867;51.556;6.832;2023-05-20T13:28:24;23.70;70.60
47114;DHT22;32867;51.556;6.832;2023-05-20T13:33:25;23.50;70.80
47114;DHT22;32867;51.556;6.832;2023-05-20T13:38:26;23.20;69.90
47114;DHT22;32867;51.556;6.832;2023-05-20T13:43:27;23.30;71.60
47114;DHT22;32867;51.556;6.832;2023-05-20T13:48:29;23.40;69.90
47114;DHT22;32867;51.556;6.832;2023-05-20T13:53:32;23.30;70.00
47114;DHT22;32867;51.556;6.832;2023-05-20T13:58:36;23.10;69.90
47114;DHT22;32867;51.556;6.832;2023-05-20T14:03:38;23.10;69.80
47114;DHT22;32867;51.556;6.832;2023-05-20T14:08:41;23.00;70.00
47114;DHT22;32867;51.556;6.832;2023-05-20T14:13:42;22.90;69.60
47114;DHT22;32867;51.556;6.832;2023-05-20T14:18:44;22.80;69.90
47114;DHT22;32867;51.556;6.832;2023-05-20T14:23:45;22.80;69.00
47114;DHT22;32867;51.556;6.832;2023-05-20T14:28:47;22.70;69.20
47114;DHT22;32867;51.556;6.832;2023-05-20T14:33:48;22.60;69.10
47114;DHT22;32867;51.556;6.832;2023-05-20T14:38:49;22.70;70.00
47114;DHT22;32867;51.556;6.832;2023-05-20T14:43:50;22.90;69.70
47114;DHT22;32867;51.556;6.832;2023-05-20T14:48:50;22.90;69.40
47114;DHT22;32867;51.556;6.832;2023-05-20T14:53:52;22.80;69.70
47114;DHT22;32867;51.556;6.832;2023-05-20T14:58:53;23.30;69.20
47114;DHT22;32867;51.556;6.832;2023-05-20T15:03:55;24.30;67.80
47114;DHT22;32867;51.556;6.832;2023-05-20T15:08:56;24.50;66.70
47114;DHT22;32867;51.556;6.832;2023-05-20T15:13:57;24.40;66.30
47114;DHT22;32867;51.556;6.832;2023-05-20T15:18:58;24.20;66.50
47114;DHT22;32867;51.556;6.832;2023-05-20T15:23:58;23.90;66.90
47114;DHT22;32867;51.556;6.832;2023-05-20T15:28:59;24.00;66.60
47114;DHT22;32867;51.556;6.832;2023-05-20T15:34:01;23.80;67.20
47114;DHT22;32867;51.556;6.832;2023-05-20T15:39:02;23.40;67.80
47114;DHT22;32867;51.556;6.832;2023-05-20T15:44:03;23.00;68.40
47114;DHT22;32867;51.556;6.832;2023-05-20T15:49:04;23.60;68.30
47114;DHT22;32867;51.556;6.832;2023-05-20T15:54:08;24.30;65.40
47114;DHT22;32867;51.556;6.832;2023-05-20T15:59:08;24.70;64.90
47114;DHT22;32867;51.556;6.832;2023-05-20T16:04:09;24.70;65.40
47114;DHT22;32867;51.556;6.832;2023-05-20T16:09:10;24.40;65.20
47114;DHT22;32867;51.556;6.832;2023-05-20T16:14:11;23.70;66.80
47114;DHT22;32867;51.556;6.832;2023-05-20T16:19:12;23.20;67.30
47114;DHT22;32867;51.556;6.832;2023-05-20T16:24:13;23.10;67.20
47114;DHT22;32867;51.556;6.832;2023-05-20T16:29:13;22.50;68.50
47114;DHT22;32867;51.556;6.832;2023-05-20T16:34:14;22.50;69.30
47114;DHT22;32867;51.556;6.832;2023-05-20T16:39:16;22.70;69.50
47114;DHT22;32867;51.556;6.832;2023-05-20T16:44:16;24.90;65.60
47114;DHT22;32867;51.556;6.832;2023-05-20T16:49:17;26.30;63.40
47114;DHT22;32867;51.556;6.832;2023-05-20T16:54:18;26.70;61.60
47114;DHT22;32867;51.556;6.832;2023-05-20T16:59:20;24.40;63.10
47114;DHT22;32867;51.556;6.832;2023-05-20T17:04:21;22.50;67.70
47114;DHT22;32867;51.556;6.832;2023-05-20T17:09:23;21.50;70.10
47114;DHT22;32867;51.556;6.832;2023-05-20T17:14:23;21.00;72.30
47114;DHT22;32867;51.556;6.832;2023-05-20T17:19:24;20.90;73.10
47114;DHT22;32867;51.556;6.832;2023-05-20T17:24:24;20.80;73.50
47114;DHT22;32867;51.556;6.832;2023-05-20T17:29:25;20.70;73.90
47114;DHT22;32867;51.556;6.832;2023-05-20T17:34:26;20.60;74.60
47114;DHT22;32867;51.556;6.832;2023-05-20T17:39:26;20.30;75.30
47114;DHT22;32867;51.556;6.832;2023-05-20T17:44:27;20.10;76.30
47114;DHT22;32867;51.556;6.832;2023-05-20T17:49:28;19.90;76.90
47114;DHT22;32867;51.556;6.832;2023-05-20T17:54:29;19.80;77.90
47114;DHT22;32867;51.556;6.832;2023-05-20T17:59:29;19.90;77.70
47114;DHT22;32867;51.556;6.832;2023-05-20T18:04:33;19.80;78.20
47114;DHT22;32867;51.556;6.832;2023-05-20T18:09:33;19.60;78.80
47114;DHT22;32867;51.556;6.832;2023-05-20T18:14:34;19.40;80.20
47114;DHT22;32867;51.556;6.832;2023-05-20T18:19:34;19.40;80.50
47114;DHT22;32867;51.556;6.832;2023-05-20T18:24:35;19.20;82.10
47114;DHT22;32867;51.556;6.832;2023-05-20T18:29:36;19.30;82.20
47114;DHT22;32867;51.556;6.832;2023-05-20T18:34:37;19.20;82.10
47114;DHT22;32867;51.556;6.832;2023-05-20T18:39:38;19.00;83.10
47114;DHT22;32867;51.556;6.832;2023-05-20T18:44:38;18.60;84.80
47114;DHT22;32867;51.556;6.832;2023-05-20T18:49:39;18.70;84.90
47114;DHT22;32867;51.556;6.832;2023-05-20T18:54:40;18.70;85.50
47114;DHT22;32867;51.556;6.832;2023-05-20T18:59:40;18.70;86.00
47114;DHT22;32867;51.556;6.832;2023-05-20T19:04:41;18.70;86.40
47114;DHT22;32867;51.556;6.832;2023-05-20T19:09:42;18.50;87.40
47114;DHT22;32867;51.556;6.832;2023-05-20T19:14:43;18.50;88.10
47114;DHT22;32867;51.556;6.832;2023-05-20T19:19:45;18.50;89.40
47114;DHT22;32867;51.556;6.832;2023-05-20T19:24:45;18.50;90.00
47114;DHT22;32867;51.556;6.832;2023-05-20T19:29:46;18.50;90.20
47114;DHT22;32867;51.556;6.832;2023-05-20T19:34:47;18.40;90.50
47114;DHT22;32867;51.556;6.832;2023-05-20T19:39:48;18.40;91.00
47114;DHT22;32867;51.556;6.832;2023-05-20T19:44:49;18.20;91.40
47114;DHT22;32867;51.556;6.832;2023-05-20T19:49:50;18.00;92.30
47114;DHT22;32867;51.556;6.832;2023-05-20T19:54:51;17.90;93.40
47114;DHT22;32867;51.556;6.832;2023-05-20T19:59:51;17.80;93.70
47114;DHT22;32867;51.556;6.832;2023-05-20T20:04:52;17.90;93.80
47114;DHT22;32867;51.556;6.832;2023-05-20T20:09:54;17.80;94.20
47114;DHT22;32867;51.556;6.832;2023-05-20T20:14:55;17.70;95.10
47114;DHT22;32867;51.556;6.832;2023-05-20T20:19:56;17.50;95.60
47114;DHT22;32867;51.556;6.832;2023-05-20T20:24:57;17.40;96.50
47114;DHT22;32867;51.556;6.832;2023-05-20T20:29:58;17.30;97.20
47114;DHT22;32867;51.556;6.832;2023-05-20T20:34:59;17.30;97.30
47114;DHT22;32867;51.556;6.832;2023-05-20T20:40:00;17.20;98.10
47114;DHT22;32867;51.556;6.832;2023-05-20T20:45:13;17.20;98.70
47114;DHT22;32867;51.556;6.832;2023-05-20T20:50:14;17.10;99.00
47114;DHT22;32867;51.556;6.832;2023-05-20T20:55:15;17.10;99.20
47114;DHT22;32867;51.556;6.832;2023-05-20T21:00:17;17.00;99.80
47114;DHT22;32867;51.556;6.832;2023-05-20T21:05:22;16.90;99.90
47114;DHT22;32867;51.556;6.832;2023-05-20T21:10:25;17.00;99.90
47114;DHT22;32867;51.556;6.832;2023-05-20T21:15:29;17.00;99.90
47114;DHT22;32867;51.556;6.832;2023-05-20T21:20:29;17.10;99.90
47114;DHT22;32867;51.556;6.832;2023-05-20T21:25:30;16.90;99.90
47114;DHT22;32867;51.556;6.832;2023-05-20T21:30:31;16.90;99.90
47114;DHT22;32867;51.556;6.832;2023-05-20T21:35:33;16.90;99.90
47114;DHT22;32867;51.556;6.832;2023-05-20T21:40:35;16.80;99.90
47114;DHT22;32867;51.556;6.832;2023-05-20T21:45:36;16.70;99.90
47114;DHT22;32867;51.556;6.832;2023-05-20T21:50:37;16.60;99.90
47114;DHT22;32867;51.556;6.832;2023-05-20T21:55:39;16.50;99.90
47114;DHT22;32867;51.556;6.832;2023-05-20T22:00:40;16.40;99.90
47114;DHT22;32867;51.556;6.832;2023-05-20T22:05:41;16.20;99.90
47114;DHT22;32867;51.556;6.832;2023-05-20T22:10:45;16.20;99.90
47114;DHT22;32867;51.556;6.832;2023-05-20T22:15:46;16.10;99.90
47114;DHT22;32867;51.556;6.832;2023-05-20T22:20:47;16.10;99.90
47114;DHT22;32867;51.556;6.832;2023-05-20T22:25:49;16.00;99.90
47114;DHT22;32867;51.556;6.832;2023-05-20T22:30:50;16.00;99.90
47114;DHT22;32867;51.556;6.832;2023-05-20T22:35:55;15.90;99.90
47114;DHT22;32867;51.556;6.832;2023-05-20T22:40:57;15.90;99.90
47114;DHT22;32867;51.556;6.832;2023-05-20T22:45:58;15.90;99.90
47114;DHT22;32867;51.556;6.832;2023-05-20T22:50:58;15.80;99.90
47114;DHT22;32867;51.556;6.832;2023-05-20T22:56:00;15.90;99.90
47114;DHT22;32867;51.556;6.832;2023-05-20T23:01:02;15.90;99.90
47114;DHT22;32867;51.556;6.832;2023-05-20T23:06:04;15.70;99.90
47114;DHT22;32867;51.556;6.832;2023-05-20T23:11:05;15.60;99.90
47114;DHT22;32867;51.556;6.832;2023-05-20T23:16:06;15.60;99.90
47114;DHT22;32867;51.556;6.832;2023-05-20T23:21:09;15.60;99.90
47114;DHT22;32867;51.556;6.832;2023-05-20T23:26:10;15.50;99.90
47114;DHT22;32867;51.556;6.832;2023-05-20T23:31:10;15.60;99.90
47114;DHT22;32867;51.556;6.832;2023-05-20T23:36:14;15.60;99.90
47114;DHT22;32867;51.556;6.832;2023-05-20T23:41:16;15.40;99.90
47114;DHT22;32867;51.556;6.832;2023-05-20T23:46:17;15.50;99.90
47114;DHT22;32867;51.556;6.832;2023-05-20T23:51:18;15.50;99.90
47114;DHT22;32867;51.556;6.832;2023-05-20T23:56:20;15.50;99.90
